EST,Max TemperatureF,Mean TemperatureF,Min TemperatureF,Max Dew PointF,MeanDew PointF,Min DewpointF,Max Humidity, Mean Humidity, Min Humidity, Max Sea Level PressureIn, Mean Sea Level PressureIn, Min Sea Level PressureIn, Max VisibilityMiles, Mean VisibilityMiles, Min VisibilityMiles, Max Wind SpeedMPH, Mean Wind SpeedMPH, Max Gust SpeedMPH,PrecipitationIn, CloudCover, Events, WindDirDegrees
2013-1-1,46,42,39,45,40,33,100,92,73,30.15,30.06,29.99,10,5,2,7,1,,1.09,8,Rain,217
2013-1-2,42,39,36,39,33,29,93,80,70,30.24,30.15,30.04,10,10,10,6,2,,0.00,8,,27
2013-1-3,44,36,28,30,26,22,81,68,42,30.43,30.30,30.22,10,10,10,5,0,,0.00,3,,139
2013-1-4,44,34,24,25,22,19,85,67,40,30.50,30.45,30.41,10,10,8,6,0,,0.00,0,,201
2013-1-5,45,34,23,34,24,20,89,66,40,30.49,30.39,30.30,10,10,7,4,1,,0.02,3,Rain,55
2013-1-6,46,42,37,37,34,26,89,76,52,30.35,30.24,30.17,10,9,5,9,3,,0.04,7,Rain,230
2013-1-7,48,38,28,29,26,22,85,66,41,30.47,30.40,30.35,10,10,8,8,3,,0.00,0,,60
2013-1-8,54,39,24,35,27,21,93,78,43,30.48,30.37,30.32,10,6,0,0,0,,0.00,2,Fog,-1
2013-1-9,48,42,37,47,42,32,93,87,74,30.50,30.43,30.37,10,6,2,6,1,,0.13,8,Rain,50
2013-1-10,62,55,48,50,48,46,94,83,64,30.49,30.38,30.17,10,9,6,7,3,,0.00,5,,50
2013-1-11,66,58,50,61,57,48,93,84,76,30.16,30.10,30.06,10,10,5,10,4,20,0.03,7,Rain,212
2013-1-12,70,66,61,63,61,56,94,85,70,30.14,30.07,30.00,10,9,2,8,2,,0.05,7,Rain,223
2013-1-13,66,62,54,61,58,51,100,88,68,30.07,30.01,29.94,10,5,0,12,4,18,1.21,8,Fog-Rain,219
2013-1-14,53,44,35,52,40,33,94,90,85,30.32,30.19,30.08,10,7,2,7,4,,1.22,8,Rain,48
2013-1-15,43,40,37,41,38,35,96,91,86,30.25,30.12,30.00,10,6,2,8,3,,2.16,8,Rain,67
2013-1-16,46,42,39,43,39,37,100,92,86,30.12,30.02,29.94,10,7,2,6,1,,0.65,8,Rain,101
2013-1-17,42,36,30,39,32,25,100,85,55,30.40,30.09,29.97,10,7,2,10,5,25,0.60,7,Rain-Snow,43
2013-1-18,46,36,25,29,26,22,92,76,42,30.59,30.52,30.43,10,8,4,6,1,,0.00,0,,99
2013-1-19,52,39,26,32,26,23,96,76,37,30.48,30.39,30.23,10,5,0,8,1,,0.00,3,Fog,226
2013-1-20,57,44,30,32,27,19,82,60,26,30.25,30.20,30.14,10,10,10,8,3,,0.00,0,,223
2013-1-21,45,36,26,27,18,8,93,58,23,30.27,30.19,30.14,10,9,1,14,2,21,0.00,0,,259
2013-1-22,34,28,21,8,-1,-10,53,31,16,30.43,30.36,30.28,10,10,10,8,3,,0.00,3,,245
2013-1-23,46,35,24,23,11,-2,66,40,27,30.43,30.32,30.19,10,10,10,8,3,,0.00,2,,227
2013-1-24,39,33,27,28,10,0,68,41,25,30.48,30.38,30.17,10,10,10,12,5,17,0.00,1,,17
2013-1-25,33,30,26,32,25,3,96,82,34,30.41,30.22,30.12,10,4,2,9,3,16,0.54,8,Rain,240
2013-1-26,44,37,30,34,31,26,96,86,63,30.43,30.29,30.19,10,5,0,6,1,,0.00,5,Fog,84
2013-1-27,46,37,28,39,30,24,89,75,55,30.49,30.43,30.38,10,9,5,5,2,,0.02,4,Rain,57
2013-1-28,52,48,43,46,39,32,86,72,59,30.39,30.32,30.25,10,9,8,7,3,,0.00,8,Rain,237
2013-1-29,62,55,48,54,49,44,100,84,63,30.25,30.08,29.88,9,5,1,6,3,,0.00,6,,224
2013-1-30,68,56,39,61,51,32,100,88,68,29.85,29.62,29.52,10,5,0,18,5,34,2.75,8,Fog-Rain,202
2013-1-31,43,38,34,29,22,18,70,53,38,30.10,30.02,29.81,10,10,10,17,10,30,0.00,6,Rain,249